Skip Navigation

Christman Field Latest Observations

Switch to metric unitsOther observation timesWeekly graphs

Date Time
MST
Temp
°F
RH
%
DewPt
°F
Wind
mph
Dir
°
Gust
mph
Dir
°
Press
in Hg
Solar
W/m^2
Prec
in
2018-06-22 02:00 59.4 84.4 54.7 0.2 344 1.7 344 24.847 0.0 0.00
2018-06-22 01:55 59.4 83.9 54.5 0.2 344 0.9 344 24.848 0.0 0.00
2018-06-22 01:50 59.3 84.5 54.6 2.5 344 4.4 333 24.853 0.0 0.00
2018-06-22 01:45 59.4 83.9 54.5 4.8 339 5.8 323 24.855 0.0 0.00
2018-06-22 01:40 59.3 84.3 54.5 5.1 323 6.4 320 24.857 0.0 0.00
2018-06-22 01:35 58.9 85.3 54.5 6.5 309 9.2 313 24.854 0.0 0.00
2018-06-22 01:30 58.6 87.1 54.7 9.6 321 10.5 309 24.852 0.0 0.00
2018-06-22 01:25 59.5 85.3 55.1 6.6 313 8.6 321 24.851 0.0 0.00
2018-06-22 01:20 59.8 81.7 54.2 4.8 335 5.9 14 24.848 0.0 0.00
2018-06-22 01:15 59.4 82.4 54.0 6.3 13 7.8 6 24.847 0.0 0.00
2018-06-22 01:10 58.3 85.1 53.8 7.7 5 9.1 358 24.849 0.0 0.00
2018-06-22 01:05 57.7 87.9 54.1 6.0 3 7.5 0 24.852 0.0 0.00
2018-06-22 01:00 57.7 88.1 54.2 3.6 314 4.0 314 24.852 0.0 0.00
2018-06-22 00:55 57.9 86.5 53.9 4.4 314 5.4 324 24.849 0.0 0.00
2018-06-22 00:50 57.6 86.2 53.5 5.5 324 6.6 302 24.849 0.0 0.00
2018-06-22 00:45 58.0 86.9 54.2 2.5 289 5.6 281 24.847 0.0 0.00
2018-06-22 00:40 58.3 84.7 53.7 2.1 160 2.7 163 24.845 0.0 0.00
2018-06-22 00:35 58.6 84.9 54.1 0.7 202 1.9 302 24.846 0.0 0.00
2018-06-22 00:30 60.0 80.5 54.0 3.6 302 5.2 21 24.847 0.0 0.00
2018-06-22 00:25 61.5 77.0 54.2 4.8 25 5.7 27 24.849 0.0 0.00
2018-06-22 00:20 62.6 72.7 53.7 3.6 53 4.5 112 24.852 0.0 0.00
2018-06-22 00:15 62.8 71.6 53.5 4.0 101 6.6 144 24.853 0.0 0.00
2018-06-22 00:10 62.4 72.2 53.3 5.6 143 7.4 141 24.852 0.0 0.00
2018-06-22 00:05 62.2 73.8 53.7 4.6 160 6.4 157 24.852 0.0 0.00
2018-06-22 00:00 62.1 73.8 53.7 3.8 141 5.3 167 24.857 0.0 0.00
2018-06-21 23:55 62.1 73.3 53.5 4.8 153 6.1 153 24.859 0.0 0.00
2018-06-21 23:50 62.5 73.0 53.7 4.3 190 5.1 192 24.859 0.0 0.00
2018-06-21 23:45 62.9 72.3 53.8 3.9 160 5.2 120 24.856 0.0 0.00
2018-06-21 23:40 62.9 71.2 53.5 3.4 124 5.2 135 24.862 0.0 0.00
2018-06-21 23:35 63.1 70.7 53.5 2.7 163 4.3 162 24.869 0.0 0.00